createdAt,value
2018-08-31T00:02:55.720Z,88.58
2018-08-31T00:05:52.762Z,88.58
2018-08-31T00:08:52.263Z,88.77
2018-08-31T00:12:42.285Z,88.29
2018-08-31T00:15:11.820Z,88.07
2018-08-31T00:17:42.818Z,88.69
2018-08-31T00:20:13.816Z,89.56
2018-08-31T00:22:43.370Z,88.86
2018-08-31T00:25:57.372Z,88.89
2018-08-31T00:28:42.544Z,89.25
2018-08-31T00:31:37.943Z,89.34
2018-08-31T00:34:55.801Z,89.77
2018-08-31T00:37:40.879Z,89.85
2018-08-31T00:41:30.049Z,89.82
2018-08-31T00:44:20.873Z,90.08
2018-08-31T00:46:50.421Z,90.84
2018-08-31T00:49:19.872Z,91.02
2018-08-31T00:51:49.290Z,90.95
2018-08-31T00:54:18.795Z,90.06
2018-08-31T00:56:48.259Z,90.62
2018-08-31T00:59:17.773Z,90.42
2018-08-31T01:01:47.245Z,90.21
2018-08-31T01:04:16.674Z,90.52
2018-08-31T01:06:46.198Z,90.14
2018-08-31T01:09:15.697Z,89.44
2018-08-31T01:11:45.340Z,89.94
2018-08-31T01:14:14.901Z,89.81
2018-08-31T01:16:44.432Z,89.48
2018-08-31T01:19:13.957Z,90.03
2018-08-31T01:21:43.421Z,89.22
2018-08-31T01:24:12.993Z,89.38
2018-08-31T01:26:42.483Z,89.86
2018-08-31T01:29:12.266Z,89.63
2018-08-31T01:31:41.797Z,89.07
2018-08-31T01:34:12.139Z,88.93
2018-08-31T01:36:41.669Z,88.73
2018-08-31T01:39:11.232Z,88.99
2018-08-31T01:41:40.767Z,89.01
2018-08-31T01:44:10.247Z,88.95
2018-08-31T01:46:39.693Z,89.04
2018-08-31T01:49:09.233Z,89.49
2018-08-31T01:51:38.671Z,89.37
2018-08-31T01:54:08.240Z,89.87
2018-08-31T01:56:37.784Z,90.07
2018-08-31T01:59:07.225Z,90.13
2018-08-31T02:01:36.802Z,89.89
2018-08-31T02:04:07.209Z,90.12
2018-08-31T02:06:36.621Z,90.22
2018-08-31T02:09:12.895Z,90.11
2018-08-31T02:11:42.473Z,89.87
2018-08-31T02:14:11.932Z,90.16
2018-08-31T02:16:41.498Z,89.91
2018-08-31T02:19:11.074Z,90.62
2018-08-31T02:21:40.586Z,90.98
2018-08-31T02:24:10.143Z,90.26
2018-08-31T02:26:39.592Z,90.42
2018-08-31T02:29:09.091Z,89.90
2018-08-31T02:31:38.555Z,90.35
2018-08-31T02:34:08.312Z,89.69
2018-08-31T02:36:37.807Z,90.20
2018-08-31T02:39:08.476Z,89.90
2018-08-31T02:41:37.986Z,90.59
2018-08-31T02:44:07.587Z,89.99
2018-08-31T02:46:37.097Z,90.23
2018-08-31T02:49:06.729Z,89.97
2018-08-31T02:51:36.196Z,90.17
2018-08-31T02:54:05.759Z,90.11
2018-08-31T02:56:35.245Z,90.03
2018-08-31T02:59:04.784Z,90.35
2018-08-31T03:01:34.240Z,89.75
2018-08-31T03:04:03.681Z,90.65
2018-08-31T03:06:33.202Z,90.38
2018-08-31T03:09:02.706Z,90.68
2018-08-31T03:11:32.251Z,90.45
2018-08-31T03:14:01.810Z,90.57
2018-08-31T03:16:31.293Z,90.61
2018-08-31T03:19:00.738Z,90.87
2018-08-31T03:21:30.210Z,90.39
2018-08-31T03:23:59.633Z,90.00
2018-08-31T03:26:29.144Z,90.29
2018-08-31T03:28:58.571Z,90.31
2018-08-31T03:31:28.025Z,89.87
2018-08-31T03:33:57.609Z,90.06
2018-08-31T03:36:27.049Z,90.01
2018-08-31T03:38:56.549Z,90.05
2018-08-31T03:41:25.997Z,90.20
2018-08-31T03:43:55.511Z,90.61
2018-08-31T03:46:24.990Z,90.20
2018-08-31T03:48:54.423Z,91.12
2018-08-31T03:51:24.074Z,90.69
2018-08-31T03:53:53.553Z,91.29
2018-08-31T03:56:23.072Z,90.82
2018-08-31T03:58:52.632Z,91.36
2018-08-31T04:01:22.059Z,91.67
2018-08-31T04:03:51.643Z,91.15
2018-08-31T04:06:21.095Z,91.06
2018-08-31T04:08:50.521Z,90.78
2018-08-31T04:11:21.532Z,91.14
2018-08-31T04:13:51.011Z,91.20
2018-08-31T04:16:20.732Z,90.99
2018-08-31T04:18:50.280Z,91.14
2018-08-31T04:21:19.878Z,91.79
2018-08-31T04:23:49.488Z,90.95
2018-08-31T04:26:19.567Z,91.20
2018-08-31T04:28:49.166Z,91.37
2018-08-31T04:31:18.741Z,91.72
2018-08-31T04:33:48.367Z,91.56
2018-08-31T04:36:18.058Z,91.42
2018-08-31T04:38:48.205Z,91.58
2018-08-31T04:41:18.097Z,92.31
2018-08-31T04:43:47.589Z,92.07
2018-08-31T04:46:17.257Z,92.00
2018-08-31T04:48:46.849Z,92.33
2018-08-31T04:51:16.373Z,92.12
2018-08-31T04:53:46.038Z,91.86
2018-08-31T04:56:15.511Z,91.37
2018-08-31T04:58:45.068Z,92.00
2018-08-31T05:01:14.574Z,91.96
2018-08-31T05:03:44.090Z,91.82
2018-08-31T05:06:13.648Z,92.14
2018-08-31T05:08:43.273Z,92.24
2018-08-31T05:11:12.850Z,91.23
2018-08-31T05:13:42.568Z,91.36
2018-08-31T05:16:12.186Z,92.33
2018-08-31T05:18:41.622Z,91.92
2018-08-31T05:21:11.073Z,90.69
2018-08-31T05:23:40.662Z,90.39
2018-08-31T05:26:10.189Z,89.71
2018-08-31T05:28:39.822Z,90.03
2018-08-31T05:31:09.345Z,89.54
2018-08-31T05:33:38.858Z,90.00
2018-08-31T05:36:08.465Z,89.64
2018-08-31T05:38:38.072Z,89.41
2018-08-31T05:41:07.577Z,88.62
2018-08-31T05:43:37.262Z,87.62
2018-08-31T05:46:06.962Z,87.75
2018-08-31T05:48:37.249Z,87.70
2018-08-31T05:51:06.917Z,86.50
2018-08-31T05:53:36.608Z,86.67
2018-08-31T05:56:06.040Z,86.32
2018-08-31T05:58:35.695Z,86.25
2018-08-31T06:01:05.216Z,86.26
2018-08-31T06:03:34.767Z,86.55
2018-08-31T06:06:04.425Z,84.92
2018-08-31T06:08:33.908Z,86.30
2018-08-31T06:11:03.790Z,85.81
2018-08-31T06:13:33.291Z,85.95
2018-08-31T06:16:02.960Z,84.29
2018-08-31T06:18:32.494Z,85.06
2018-08-31T06:21:02.040Z,84.84
2018-08-31T06:23:31.492Z,84.61
2018-08-31T06:26:01.079Z,84.26
2018-08-31T06:28:30.623Z,84.55
2018-08-31T06:31:00.161Z,85.21
2018-08-31T06:33:29.779Z,84.40
2018-08-31T06:35:59.750Z,84.11
2018-08-31T06:38:29.206Z,83.80
2018-08-31T06:40:58.740Z,83.72
2018-08-31T06:43:29.038Z,83.19
2018-08-31T06:45:58.593Z,84.03
2018-08-31T06:48:28.093Z,82.94
2018-08-31T06:50:57.749Z,82.50
2018-08-31T06:53:27.318Z,82.52
2018-08-31T06:55:56.977Z,82.37
2018-08-31T06:58:26.653Z,81.05
2018-08-31T07:00:56.184Z,81.35
2018-08-31T07:03:25.658Z,81.56
2018-08-31T07:05:55.358Z,80.87
2018-08-31T07:08:25.119Z,81.41
2018-08-31T07:10:54.562Z,80.22
2018-08-31T07:13:24.063Z,79.89
2018-08-31T07:15:53.590Z,80.03
2018-08-31T07:18:23.365Z,79.85
2018-08-31T07:20:52.838Z,79.77
2018-08-31T07:23:22.332Z,79.59
2018-08-31T07:25:51.758Z,79.32
2018-08-31T07:28:21.446Z,79.22
2018-08-31T07:30:51.082Z,77.41
2018-08-31T07:33:20.619Z,78.69
2018-08-31T07:35:50.243Z,77.33
2018-08-31T07:38:19.841Z,76.71
2018-08-31T07:40:49.664Z,77.22
2018-08-31T07:43:19.521Z,78.11
2018-08-31T07:45:48.981Z,76.50
2018-08-31T07:48:18.497Z,76.70
2018-08-31T07:50:48.024Z,76.28
2018-08-31T07:53:17.632Z,76.65
2018-08-31T07:55:47.210Z,75.66
2018-08-31T07:58:16.762Z,75.08
2018-08-31T08:00:46.384Z,74.07
2018-08-31T08:03:15.962Z,73.97
2018-08-31T08:05:46.188Z,73.11
2018-08-31T08:08:15.733Z,72.90
2018-08-31T08:10:45.742Z,72.69
2018-08-31T08:13:15.621Z,73.50
2018-08-31T08:15:45.119Z,72.87
2018-08-31T08:18:14.722Z,73.69
2018-08-31T08:20:44.290Z,72.29
2018-08-31T08:23:13.977Z,73.01
2018-08-31T08:25:43.670Z,72.73
2018-08-31T08:28:13.741Z,71.93
2018-08-31T08:30:43.350Z,72.68
2018-08-31T08:33:12.978Z,69.66
2018-08-31T08:35:42.742Z,70.16
2018-08-31T08:38:12.287Z,68.69
2018-08-31T08:40:41.861Z,69.58
2018-08-31T08:43:11.313Z,69.95
2018-08-31T08:45:41.540Z,70.07
2018-08-31T08:48:11.598Z,69.93
2018-08-31T08:50:41.010Z,69.43
2018-08-31T08:53:10.528Z,68.28
2018-08-31T08:55:40.102Z,68.90
2018-08-31T08:58:09.633Z,69.39
2018-08-31T09:00:39.739Z,69.24
2018-08-31T09:03:09.279Z,68.78
2018-08-31T09:05:38.818Z,68.98
2018-08-31T09:08:08.328Z,66.92
2018-08-31T09:10:37.898Z,67.21
2018-08-31T09:13:07.400Z,68.08
2018-08-31T09:15:37.000Z,67.85
2018-08-31T09:18:06.812Z,68.17
2018-08-31T09:20:36.364Z,65.58
2018-08-31T09:23:06.254Z,64.25
2018-08-31T09:25:35.865Z,65.92
2018-08-31T09:28:05.450Z,65.90
2018-08-31T09:30:40.094Z,67.11
2018-08-31T09:33:09.691Z,66.30
2018-08-31T09:35:39.257Z,65.76
2018-08-31T09:38:08.899Z,64.99
2018-08-31T09:40:38.439Z,63.63
2018-08-31T09:43:08.203Z,62.07
2018-08-31T09:45:37.737Z,61.98
2018-08-31T09:48:08.028Z,61.37
2018-08-31T09:50:37.655Z,62.04
2018-08-31T09:53:07.337Z,62.63
2018-08-31T09:55:36.969Z,63.02
2018-08-31T09:58:06.420Z,61.01
2018-08-31T10:00:40.996Z,59.70
2018-08-31T10:03:15.754Z,61.83
2018-08-31T10:05:46.006Z,61.42
2018-08-31T10:08:15.538Z,61.16
2018-08-31T10:10:45.564Z,61.68
2018-08-31T10:13:15.139Z,61.36
2018-08-31T10:15:44.912Z,62.38
2018-08-31T10:18:14.508Z,61.22
2018-08-31T10:20:44.067Z,59.24
2018-08-31T10:23:13.719Z,59.51
2018-08-31T10:25:43.203Z,60.27
2018-08-31T10:28:12.803Z,60.76
2018-08-31T10:30:42.962Z,61.50
2018-08-31T10:33:12.438Z,58.78
2018-08-31T10:35:41.985Z,59.14
2018-08-31T10:38:11.554Z,59.54
2018-08-31T10:40:41.111Z,59.69
2018-08-31T10:43:10.721Z,60.30
2018-08-31T10:45:40.380Z,59.68
2018-08-31T10:48:09.952Z,59.41
2018-08-31T10:50:39.512Z,59.47
2018-08-31T10:53:09.048Z,58.99
2018-08-31T10:55:38.573Z,57.11
2018-08-31T10:58:09.552Z,57.78
2018-08-31T11:00:39.092Z,58.64
2018-08-31T11:03:08.650Z,58.33
2018-08-31T11:05:38.967Z,57.56
2018-08-31T11:08:08.577Z,57.35
2018-08-31T11:10:38.164Z,55.76
2018-08-31T11:13:07.821Z,55.62
2018-08-31T11:15:37.367Z,55.85
2018-08-31T11:18:06.990Z,56.01
2018-08-31T11:20:36.590Z,55.99
2018-08-31T11:23:06.293Z,54.89
2018-08-31T11:25:35.788Z,55.42
2018-08-31T11:28:05.386Z,56.11
2018-08-31T11:30:34.945Z,56.74
2018-08-31T11:33:04.547Z,57.13
2018-08-31T11:35:34.151Z,56.96
2018-08-31T11:38:03.605Z,54.70
2018-08-31T11:40:33.222Z,55.75
2018-08-31T11:43:02.806Z,56.56
2018-08-31T11:45:32.322Z,56.43
2018-08-31T11:48:02.134Z,57.49
2018-08-31T11:50:31.616Z,57.41
2018-08-31T11:53:01.020Z,56.92
2018-08-31T11:55:30.572Z,57.43
2018-08-31T11:58:00.078Z,56.70
2018-08-31T12:00:29.966Z,54.58
2018-08-31T12:03:00.049Z,54.06
2018-08-31T12:05:29.581Z,52.78
2018-08-31T12:07:59.262Z,54.08
2018-08-31T12:10:28.652Z,54.64
2018-08-31T12:12:58.270Z,53.76
2018-08-31T12:15:27.762Z,55.23
2018-08-31T12:17:57.257Z,54.57
2018-08-31T12:20:26.892Z,54.63
2018-08-31T12:22:56.405Z,55.27
2018-08-31T12:25:25.871Z,55.13
2018-08-31T12:27:55.429Z,52.94
2018-08-31T12:30:25.020Z,50.98
2018-08-31T12:32:54.540Z,50.20
2018-08-31T12:35:24.136Z,51.18
2018-08-31T12:37:53.623Z,50.26
2018-08-31T12:40:23.084Z,47.62
2018-08-31T12:42:52.688Z,45.95
2018-08-31T12:45:22.244Z,45.06
2018-08-31T12:47:52.036Z,42.81
2018-08-31T12:50:21.709Z,42.87
2018-08-31T12:52:51.290Z,44.59
2018-08-31T12:55:20.817Z,47.05
2018-08-31T12:57:50.271Z,49.28
2018-08-31T13:00:19.915Z,50.55
2018-08-31T13:02:49.394Z,53.93
2018-08-31T13:05:19.441Z,55.65
2018-08-31T13:07:49.109Z,55.00
2018-08-31T13:10:19.012Z,56.44
2018-08-31T13:12:48.568Z,56.26
2018-08-31T13:15:18.278Z,52.74
2018-08-31T13:17:47.907Z,49.65
2018-08-31T13:20:17.470Z,53.64
2018-08-31T13:22:47.332Z,55.51
2018-08-31T13:25:16.814Z,58.20
2018-08-31T13:27:46.430Z,60.03
2018-08-31T13:30:15.944Z,60.55
2018-08-31T13:32:45.716Z,62.98
2018-08-31T13:35:15.356Z,62.64
2018-08-31T13:37:44.913Z,62.23
2018-08-31T13:40:14.474Z,63.01
2018-08-31T13:42:43.981Z,62.05
2018-08-31T13:45:13.630Z,62.09
2018-08-31T13:47:43.902Z,60.11
2018-08-31T13:50:13.713Z,59.33
2018-08-31T13:52:43.447Z,58.18
2018-08-31T13:55:13.563Z,56.92
2018-08-31T13:57:43.284Z,53.27
2018-08-31T14:00:12.944Z,53.31
2018-08-31T14:02:43.661Z,51.28
2018-08-31T14:05:13.159Z,52.50
2018-08-31T14:07:42.851Z,52.70
2018-08-31T14:10:13.092Z,52.24
2018-08-31T14:12:42.715Z,52.74
2018-08-31T14:15:12.261Z,49.99
2018-08-31T14:17:41.788Z,51.12
2018-08-31T14:20:11.293Z,51.27
2018-08-31T14:22:40.772Z,50.54
2018-08-31T14:25:10.391Z,49.03
2018-08-31T14:27:39.925Z,49.15
2018-08-31T14:30:09.550Z,48.88
2018-08-31T14:32:39.025Z,49.15
2018-08-31T14:35:08.575Z,49.06
2018-08-31T14:37:38.474Z,49.94
2018-08-31T14:40:08.934Z,52.65
2018-08-31T14:42:38.382Z,55.11
2018-08-31T14:45:08.661Z,57.62
2018-08-31T14:47:38.221Z,57.18
2018-08-31T14:50:08.064Z,58.74
2018-08-31T14:52:37.672Z,59.87
2018-08-31T14:55:07.533Z,57.91
2018-08-31T14:57:37.210Z,56.64
2018-08-31T15:00:07.066Z,55.81
2018-08-31T15:02:36.799Z,56.67
2018-08-31T15:05:06.410Z,56.37
2018-08-31T15:07:36.107Z,56.65
2018-08-31T15:10:05.788Z,57.21
2018-08-31T15:12:35.313Z,58.16
2018-08-31T15:15:06.349Z,57.97
2018-08-31T15:17:35.835Z,57.88
2018-08-31T15:20:05.761Z,57.07
2018-08-31T15:22:35.369Z,56.17
2018-08-31T15:25:05.265Z,56.54
2018-08-31T15:27:34.821Z,56.04
2018-08-31T15:30:05.299Z,55.79
2018-08-31T15:32:34.777Z,56.19
2018-08-31T15:35:04.894Z,55.44
2018-08-31T15:37:35.013Z,56.70
2018-08-31T15:40:05.370Z,57.58
2018-08-31T15:42:35.589Z,58.36
2018-08-31T15:45:05.361Z,60.32
2018-08-31T15:47:34.977Z,60.91
2018-08-31T15:50:04.592Z,61.71
2018-08-31T15:52:34.187Z,62.35
2018-08-31T15:55:03.685Z,60.48
2018-08-31T15:57:33.181Z,60.34
2018-08-31T16:00:02.706Z,60.78
2018-08-31T16:02:32.360Z,61.73
2018-08-31T16:05:01.661Z,61.36
2018-08-31T16:07:31.233Z,62.46
2018-08-31T16:10:00.677Z,62.48
2018-08-31T16:12:30.275Z,61.58
2018-08-31T16:14:59.837Z,61.65
2018-08-31T16:17:29.393Z,62.73
2018-08-31T16:19:59.198Z,63.12
2018-08-31T16:22:28.832Z,63.11
2018-08-31T16:24:58.502Z,64.00
2018-08-31T16:27:28.030Z,64.55
2018-08-31T16:29:57.653Z,64.92
2018-08-31T16:32:27.220Z,65.53
2018-08-31T16:34:56.840Z,65.30
2018-08-31T16:37:26.529Z,64.07
2018-08-31T16:39:55.998Z,62.95
2018-08-31T16:42:26.466Z,64.27
2018-08-31T16:44:55.972Z,63.60
2018-08-31T16:47:25.909Z,62.35
2018-08-31T16:49:55.369Z,60.22
2018-08-31T16:52:24.944Z,59.63
2018-08-31T16:54:54.732Z,59.59
2018-08-31T16:57:24.706Z,59.70
2018-08-31T16:59:54.252Z,60.16
2018-08-31T17:02:23.999Z,60.82
2018-08-31T17:04:53.570Z,61.42
2018-08-31T17:07:23.237Z,62.28
2018-08-31T17:09:53.023Z,62.31
2018-08-31T17:12:23.093Z,63.02
2018-08-31T17:14:52.576Z,63.26
2018-08-31T17:17:22.071Z,63.48
2018-08-31T17:19:52.237Z,63.10
2018-08-31T17:22:21.758Z,64.45
2018-08-31T17:24:51.446Z,63.74
2018-08-31T17:27:26.250Z,64.22
2018-08-31T17:29:56.060Z,64.07
2018-08-31T17:32:30.793Z,63.74
2018-08-31T17:35:05.655Z,63.79
2018-08-31T17:37:36.564Z,64.49
2018-08-31T17:40:06.309Z,64.75
2018-08-31T17:42:40.300Z,64.30
2018-08-31T17:45:12.539Z,64.78
2018-08-31T17:47:42.073Z,65.22
2018-08-31T17:50:12.110Z,65.36
2018-08-31T17:52:41.747Z,65.62
2018-08-31T17:55:11.316Z,66.46
2018-08-31T17:57:41.109Z,66.69
2018-08-31T18:00:11.805Z,66.79
2018-08-31T18:02:41.909Z,67.06
2018-08-31T18:05:11.862Z,66.92
2018-08-31T18:07:41.852Z,67.58
2018-08-31T18:10:13.700Z,67.94
2018-08-31T18:12:43.457Z,68.45
2018-08-31T18:15:16.442Z,68.67
2018-08-31T18:17:47.185Z,68.97
2018-08-31T18:20:18.075Z,68.62
2018-08-31T18:22:50.250Z,69.72
2018-08-31T18:25:19.793Z,69.44
2018-08-31T18:27:51.105Z,69.27
2018-08-31T18:30:21.014Z,69.60
2018-08-31T18:32:50.653Z,70.55
2018-08-31T18:35:20.459Z,70.11
2018-08-31T18:37:50.140Z,70.89
2018-08-31T18:40:24.676Z,71.10
2018-08-31T18:42:56.361Z,71.78
2018-08-31T18:45:26.740Z,72.33
2018-08-31T18:47:56.544Z,72.84
2018-08-31T18:50:26.119Z,73.40
2018-08-31T18:52:55.842Z,73.37
2018-08-31T18:55:26.453Z,73.45
2018-08-31T18:57:57.211Z,73.78
2018-08-31T19:00:27.801Z,74.40
2018-08-31T19:02:57.389Z,74.45
2018-08-31T19:05:27.539Z,74.78
2018-08-31T19:07:57.360Z,75.25
2018-08-31T19:10:26.939Z,75.04
2018-08-31T19:12:56.498Z,76.05
2018-08-31T19:15:26.161Z,75.79
2018-08-31T19:17:55.970Z,75.92
2018-08-31T19:20:25.833Z,76.65
2018-08-31T19:22:59.335Z,76.56
2018-08-31T19:25:30.284Z,76.88
2018-08-31T19:28:01.028Z,76.75
2018-08-31T19:30:30.791Z,77.27
2018-08-31T19:33:00.500Z,76.92
2018-08-31T19:35:30.271Z,77.28
2018-08-31T19:38:00.208Z,78.07
2018-08-31T19:40:29.833Z,78.07
2018-08-31T19:42:59.440Z,78.61
2018-08-31T19:45:29.013Z,78.46
2018-08-31T19:47:58.551Z,79.32
2018-08-31T19:50:28.075Z,78.88
2018-08-31T19:52:58.011Z,79.64
2018-08-31T19:55:27.639Z,79.53
2018-08-31T19:57:57.241Z,80.17
2018-08-31T20:00:26.759Z,80.46
2018-08-31T20:02:56.354Z,80.29
2018-08-31T20:05:25.930Z,80.44
2018-08-31T20:07:55.588Z,81.49
2018-08-31T20:10:25.072Z,81.76
2018-08-31T20:12:54.586Z,81.18
2018-08-31T20:15:24.316Z,81.48
2018-08-31T20:17:53.952Z,82.24
2018-08-31T20:20:23.562Z,82.43
2018-08-31T20:22:53.100Z,82.58
2018-08-31T20:25:22.544Z,82.69
2018-08-31T20:27:52.037Z,82.95
2018-08-31T20:30:21.563Z,83.03
2018-08-31T20:32:51.064Z,83.52
2018-08-31T20:35:20.575Z,83.43
2018-08-31T20:37:50.148Z,83.90
2018-08-31T20:40:19.626Z,84.07
2018-08-31T20:42:49.210Z,84.82
2018-08-31T20:45:18.688Z,85.23
2018-08-31T20:47:48.195Z,85.64
2018-08-31T20:50:17.710Z,86.19
2018-08-31T20:52:47.201Z,85.82
2018-08-31T20:55:16.698Z,85.48
2018-08-31T20:57:46.228Z,86.32
2018-08-31T21:00:15.682Z,86.51
2018-08-31T21:02:45.171Z,86.13
2018-08-31T21:05:14.611Z,86.43
2018-08-31T21:07:44.134Z,86.84
2018-08-31T21:10:13.650Z,86.45
2018-08-31T21:12:43.079Z,86.56
2018-08-31T21:16:41.621Z,87.41
2018-08-31T21:19:11.033Z,87.18
2018-08-31T21:21:40.545Z,87.26
2018-08-31T21:24:10.058Z,87.53
2018-08-31T21:26:39.565Z,87.78
2018-08-31T21:29:10.017Z,87.85
2018-08-31T21:31:39.493Z,88.42
2018-08-31T21:34:09.698Z,88.52
2018-08-31T21:36:39.165Z,88.56
2018-08-31T21:39:09.479Z,88.37
2018-08-31T21:41:39.239Z,88.72
2018-08-31T21:44:08.742Z,89.41
2018-08-31T21:46:38.259Z,89.11
2018-08-31T21:49:07.746Z,88.49
2018-08-31T21:51:37.228Z,88.87
2018-08-31T21:54:06.745Z,88.68
2018-08-31T21:56:36.213Z,89.05
2018-08-31T21:59:05.829Z,89.04
2018-08-31T22:01:38.397Z,88.96
2018-08-31T22:04:09.624Z,88.69
2018-08-31T22:06:39.493Z,88.95
2018-08-31T22:09:10.374Z,89.14
2018-08-31T22:11:39.823Z,89.02
2018-08-31T22:14:09.308Z,89.16
2018-08-31T22:16:38.813Z,89.57
2018-08-31T22:19:08.295Z,89.70
2018-08-31T22:21:37.803Z,89.34
2018-08-31T22:24:07.277Z,88.85
2018-08-31T22:26:36.752Z,88.95
2018-08-31T22:29:06.296Z,89.08
2018-08-31T22:31:35.744Z,89.03
2018-08-31T22:34:05.342Z,89.71
2018-08-31T22:36:34.840Z,89.34
2018-08-31T22:39:04.752Z,89.50
2018-08-31T22:41:34.249Z,89.56
2018-08-31T22:44:03.714Z,89.04
2018-08-31T22:46:33.184Z,88.98
2018-08-31T22:49:02.653Z,88.88
2018-08-31T22:51:32.119Z,88.92
2018-08-31T22:54:01.599Z,89.67
2018-08-31T22:56:31.110Z,90.26
2018-08-31T22:59:00.537Z,89.60
2018-08-31T23:01:30.011Z,89.86
2018-08-31T23:03:59.516Z,89.92
2018-08-31T23:06:28.958Z,89.62
2018-08-31T23:08:58.394Z,89.94
2018-08-31T23:11:27.874Z,90.18
2018-08-31T23:13:57.406Z,90.87
2018-08-31T23:16:26.729Z,90.66
2018-08-31T23:18:56.263Z,90.63
2018-08-31T23:21:25.747Z,90.75
2018-08-31T23:23:55.201Z,90.88
2018-08-31T23:26:24.709Z,90.83
2018-08-31T23:28:54.121Z,91.92
2018-08-31T23:31:23.600Z,91.90
2018-08-31T23:33:53.107Z,92.01
2018-08-31T23:36:22.550Z,92.41
2018-08-31T23:38:51.954Z,93.13
2018-08-31T23:41:21.440Z,93.29
2018-08-31T23:45:20.298Z,92.85
2018-08-31T23:47:49.748Z,93.54
2018-08-31T23:50:19.176Z,93.45
2018-08-31T23:52:48.635Z,94.11
2018-08-31T23:55:18.150Z,93.77
2018-08-31T23:57:47.610Z,94.53
